Terminal Aerodrome Forecast
Issued by NWS La Crosse, WI

Home | Current Version | Previous Version | Text Only | Print | Product List | Glossary On
Versions: 1 2 3 4 5 6 7 8 9 10 11 12 13 14 15 16 17 18 19 20 21 22 23 24 25 26 27 28 29 30 31 32 33 34 35
000
FTUS43 KARX 042331
TAFRST
TAF
KRST 042331Z 0500/0524 06006KT P6SM SCT100
     FM050500 07008KT P6SM SCT040 OVC060
     FM050900 09008KT P6SM VCSH BKN030
     FM051500 11014G22KT P6SM SCT030 BKN100=

USA.gov is the U.S. government's official web portal to all federal, state and local government web resources and services.